Time;durP1;ratioP1;P1;durP2;ratioP2;P2;SDS_P1;SDS_P2;PMS_P1;PMS_P2;Temp;Humidity;BMP_temperature;BMP_pressure;BME280_temperature;BME280_humidity;BME280_pressure;Samples;Min_cycle;Max_cycle;Signal;HPM_P1;HPM_P2
2023/05/21 00:01:42;;;;;;;2.83;2.20;;;15.30;1.00;;;;;;5024949;28;20041;-64
2023/05/21 00:04:08;;;;;;;6.35;2.22;;;15.30;1.00;;;;;;5041239;28;20033;-65
2023/05/21 00:06:37;;;;;;;4.60;2.30;;;15.30;1.00;;;;;;5058686;28;20102;-65
2023/05/21 00:09:04;;;;;;;6.45;2.42;;;15.30;1.00;;;;;;5074444;28;20046;-65
2023/05/21 00:11:31;;;;;;;4.80;2.65;;;15.30;1.00;;;;;;5058032;28;20032;-66
2023/05/21 00:13:57;;;;;;;3.83;2.50;;;15.30;1.00;;;;;;5057731;28;20025;-65
2023/05/21 00:16:23;;;;;;;3.35;2.40;;;15.20;1.00;;;;;;5058366;28;20270;-65
2023/05/21 00:18:49;;;;;;;3.33;2.67;;;15.30;1.00;;;;;;5058510;28;20056;-64
2023/05/21 00:21:16;;;;;;;2.95;2.40;;;15.20;1.00;;;;;;5057701;28;20126;-64
2023/05/21 00:23:44;;;;;;;3.15;2.42;;;15.20;1.00;;;;;;5057709;28;20029;-64
2023/05/21 00:26:10;;;;;;;2.88;2.45;;;15.00;1.00;;;;;;5057631;28;20046;-64
2023/05/21 00:28:36;;;;;;;2.83;2.40;;;15.00;1.00;;;;;;5057544;28;20258;-64
2023/05/21 00:31:01;;;;;;;3.78;2.30;;;14.90;1.00;;;;;;5058305;28;20099;-65
2023/05/21 00:33:28;;;;;;;5.32;2.78;;;15.00;1.00;;;;;;5058238;28;20108;-64
2023/05/21 00:35:55;;;;;;;3.42;2.90;;;14.90;1.00;;;;;;5024704;28;20033;-65
2023/05/21 00:38:22;;;;;;;3.30;2.42;;;14.90;1.00;;;;;;5058048;28;20090;-65
2023/05/21 00:40:48;;;;;;;2.95;2.58;;;14.90;1.00;;;;;;5057457;28;20297;-65
2023/05/21 00:43:13;;;;;;;3.30;2.72;;;14.80;1.00;;;;;;5057147;28;20056;-64
2023/05/21 00:45:43;;;;;;;3.00;2.70;;;14.90;1.00;;;;;;5058584;28;20404;-66
2023/05/21 00:48:10;;;;;;;4.03;2.60;;;14.90;1.00;;;;;;5057463;28;20094;-66
2023/05/21 00:50:38;;;;;;;3.60;2.58;;;14.90;1.00;;;;;;5040109;28;20102;-65
2023/05/21 00:53:08;;;;;;;5.40;2.60;;;14.90;1.00;;;;;;5057212;28;20025;-65
2023/05/21 00:55:39;;;;;;;3.42;2.42;;;14.90;1.00;;;;;;5058437;28;20395;-65
2023/05/21 00:58:06;;;;;;;4.40;2.78;;;14.90;1.00;;;;;;5058087;28;20408;-65
2023/05/21 01:00:36;;;;;;;3.42;2.92;;;14.80;1.00;;;;;;5056985;28;20029;-65
2023/05/21 01:03:03;;;;;;;3.08;2.78;;;14.70;1.00;;;;;;5057012;28;20120;-65
2023/05/21 01:05:29;;;;;;;3.58;2.70;;;14.70;1.00;;;;;;5056806;28;20052;-66
2023/05/21 01:07:57;;;;;;;3.88;2.78;;;14.70;1.00;;;;;;5073724;28;20392;-65
2023/05/21 01:10:25;;;;;;;3.25;2.70;;;14.70;1.00;;;;;;5056763;28;20033;-66
2023/05/21 01:12:51;;;;;;;3.33;2.78;;;14.70;1.00;;;;;;5040305;28;20285;-65
2023/05/21 01:15:17;;;;;;;3.90;2.80;;;14.70;1.00;;;;;;5057419;28;20025;-65
2023/05/21 01:17:47;;;;;;;3.70;2.85;;;14.70;1.00;;;;;;5056542;28;20415;-65
2023/05/21 01:20:19;;;;;;;3.40;3.03;;;14.60;1.00;;;;;;5057033;28;20111;-65
2023/05/21 01:22:55;;;;;;;3.72;2.78;;;14.50;1.00;;;;;;5057546;28;20304;-65
2023/05/21 01:25:23;;;;;;;2.60;2.40;;;14.50;1.00;;;;;;5040241;28;20422;-65
2023/05/21 01:27:50;;;;;;;3.35;3.05;;;14.40;1.00;;;;;;5057254;28;20061;-65
2023/05/21 01:30:17;;;;;;;4.82;2.83;;;14.40;1.00;;;;;;5056385;28;20029;-65
2023/05/21 01:32:55;;;;;;;5.57;3.03;;;14.50;1.00;;;;;;5057132;28;20025;-66
2023/05/21 01:35:25;;;;;;;3.42;2.80;;;14.50;1.00;;;;;;5057127;28;20108;-66
2023/05/21 01:38:12;;;;;;;6.50;3.30;;;14.50;1.00;;;;;;5057093;28;20054;-66
2023/05/21 01:40:50;;;;;;;3.42;3.08;;;14.60;1.00;;;;;;5056461;28;20037;-65
2023/05/21 01:43:18;;;;;;;4.82;3.20;;;14.40;1.00;;;;;;5056330;28;20025;-66
2023/05/21 01:45:46;;;;;;;4.70;3.20;;;14.40;1.00;;;;;;5023328;28;20033;-65
2023/05/21 01:48:12;;;;;;;5.93;3.28;;;14.40;1.00;;;;;;5056145;28;20043;-65
2023/05/21 01:50:39;;;;;;;5.72;3.20;;;14.30;1.00;;;;;;5056098;28;20069;-65
2023/05/21 01:53:06;;;;;;;3.70;2.90;;;14.40;1.00;;;;;;5056088;28;20021;-65
2023/05/21 01:55:32;;;;;;;4.93;2.95;;;14.30;1.00;;;;;;5056104;28;20086;-65
2023/05/21 01:57:59;;;;;;;4.82;3.28;;;14.30;1.00;;;;;;5056018;28;20086;-65
2023/05/21 02:00:29;;;;;;;3.85;3.20;;;14.30;1.00;;;;;;5056738;28;20155;-65
2023/05/21 02:02:55;;;;;;;4.68;3.10;;;14.30;1.00;;;;;;5056989;28;20041;-66
2023/05/21 02:05:21;;;;;;;3.50;3.20;;;14.40;1.00;;;;;;5039327;28;20075;-65
2023/05/21 02:07:48;;;;;;;3.38;3.08;;;14.30;1.00;;;;;;5022950;28;20037;-65
2023/05/21 02:10:14;;;;;;;3.72;3.38;;;14.40;1.00;;;;;;5056694;28;20064;-65
2023/05/21 02:12:41;;;;;;;3.47;3.17;;;14.30;1.00;;;;;;5055919;28;20171;-65
2023/05/21 02:15:08;;;;;;;3.63;3.10;;;14.30;1.00;;;;;;5056652;28;20032;-65
2023/05/21 02:17:34;;;;;;;3.53;3.22;;;14.30;1.00;;;;;;5022820;28;20025;-66
2023/05/21 02:20:10;;;;;;;3.50;3.20;;;14.20;1.00;;;;;;5055896;28;20021;-65
2023/05/21 02:22:38;;;;;;;4.28;3.35;;;14.10;1.00;;;;;;5055856;28;20032;-65
2023/05/21 02:25:07;;;;;;;3.70;3.30;;;14.20;1.00;;;;;;5056496;28;20065;-66
2023/05/21 02:27:35;;;;;;;8.10;3.22;;;14.20;1.00;;;;;;5056529;28;20396;-64
2023/05/21 02:30:03;;;;;;;3.33;3.03;;;14.30;1.00;;;;;;5056517;28;20051;-65
2023/05/21 02:32:31;;;;;;;4.95;3.35;;;14.30;1.00;;;;;;5055933;28;20025;-65
2023/05/21 02:34:57;;;;;;;3.85;3.17;;;14.20;1.00;;;;;;5055785;28;20049;-65
2023/05/21 02:37:26;;;;;;;3.33;3.03;;;14.20;1.00;;;;;;5055678;28;20029;-65
2023/05/21 02:39:55;;;;;;;4.07;3.47;;;14.20;1.00;;;;;;5039104;28;20099;-64
2023/05/21 02:42:22;;;;;;;4.35;3.90;;;14.20;1.00;;;;;;5055745;28;20057;-65
2023/05/21 02:44:49;;;;;;;6.30;3.63;;;14.10;1.00;;;;;;5055762;28;20064;-65
2023/05/21 02:47:19;;;;;;;4.53;4.03;;;14.10;1.00;;;;;;5055759;28;20028;-65
2023/05/21 02:49:46;;;;;;;4.18;3.50;;;14.10;1.00;;;;;;5039381;28;20392;-65
2023/05/21 02:52:12;;;;;;;3.90;3.50;;;14.10;1.00;;;;;;5055689;28;20044;-67
2023/05/21 02:54:38;;;;;;;3.95;3.60;;;14.10;1.00;;;;;;5022830;28;20044;-65
2023/05/21 02:57:04;;;;;;;3.88;3.50;;;14.10;1.00;;;;;;5055479;28;20033;-66
2023/05/21 02:59:30;;;;;;;4.38;3.67;;;14.20;1.00;;;;;;5055773;28;20041;-65
2023/05/21 03:01:56;;;;;;;4.18;3.58;;;14.10;1.00;;;;;;5022392;28;20042;-66
2023/05/21 03:04:22;;;;;;;4.10;3.70;;;14.20;1.00;;;;;;5055303;28;20041;-66
2023/05/21 03:06:54;;;;;;;4.93;3.85;;;14.00;1.00;;;;;;5072409;28;20117;-65
2023/05/21 03:09:20;;;;;;;6.32;4.20;;;14.10;1.00;;;;;;5056174;28;20040;-65
2023/05/21 03:11:46;;;;;;;5.32;3.80;;;14.00;1.00;;;;;;5023107;28;20029;-65
2023/05/21 03:14:13;;;;;;;4.00;3.60;;;14.00;1.00;;;;;;5075764;28;20423;-65
2023/05/21 03:16:40;;;;;;;5.85;3.70;;;13.90;1.00;;;;;;5026203;28;20049;-65
2023/05/21 03:19:11;;;;;;;7.68;4.00;;;13.90;1.00;;;;;;5058883;28;20063;-66
2023/05/21 03:21:37;;;;;;;3.80;3.50;;;14.00;1.00;;;;;;5059188;28;20029;-65
2023/05/21 03:24:04;;;;;;;4.00;3.60;;;13.90;1.00;;;;;;5058889;28;20444;-66
2023/05/21 03:26:30;;;;;;;5.68;3.67;;;13.90;1.00;;;;;;5058697;28;20060;-66
2023/05/21 03:28:57;;;;;;;4.03;3.60;;;13.90;1.00;;;;;;5042141;28;20094;-66
2023/05/21 03:31:25;;;;;;;5.80;3.60;;;13.90;1.00;;;;;;5058660;28;20060;-65
2023/05/21 03:34:11;;;;;;;5.75;3.90;;;13.90;1.00;;;;;;5058325;28;20041;-65
2023/05/21 03:36:37;;;;;;;4.20;3.70;;;13.90;1.00;;;;;;5058580;28;20033;-66
2023/05/21 03:39:03;;;;;;;4.35;3.95;;;13.90;1.00;;;;;;5059271;28;20037;-66
2023/05/21 03:41:32;;;;;;;6.15;4.40;;;13.90;1.00;;;;;;5058445;28;20036;-66
2023/05/21 03:44:10;;;;;;;5.03;4.20;;;13.90;1.00;;;;;;5043551;28;20359;-66
2023/05/21 03:46:51;;;;;;;4.38;3.70;;;13.90;1.00;;;;;;5058880;28;20025;-65
2023/05/21 03:49:26;;;;;;;4.15;3.75;;;13.90;1.00;;;;;;5059633;28;20431;-65
2023/05/21 03:51:54;;;;;;;4.43;4.05;;;13.90;1.00;;;;;;5042101;28;20033;-66
2023/05/21 03:54:21;;;;;;;5.75;4.80;;;13.90;1.00;;;;;;5058740;28;20403;-65
2023/05/21 03:56:49;;;;;;;4.53;4.13;;;14.00;1.00;;;;;;5058352;28;20025;-64
2023/05/21 03:59:15;;;;;;;4.95;4.43;;;13.90;1.00;;;;;;5041336;28;20032;-65
2023/05/21 04:01:44;;;;;;;4.72;4.15;;;13.90;1.00;;;;;;5041610;28;20102;-64
2023/05/21 04:04:12;;;;;;;7.43;4.25;;;13.90;1.00;;;;;;5057676;28;20036;-64
2023/05/21 04:06:41;;;;;;;5.07;4.25;;;13.90;1.00;;;;;;5057874;28;20363;-65
2023/05/21 04:09:07;;;;;;;5.15;4.40;;;14.00;1.00;;;;;;5041626;28;20400;-65
2023/05/21 04:11:32;;;;;;;5.07;4.07;;;14.00;1.00;;;;;;5057727;28;20059;-65
2023/05/21 04:13:58;;;;;;;5.70;4.47;;;14.10;1.00;;;;;;5057798;28;20033;-64
2023/05/21 04:16:24;;;;;;;5.22;4.25;;;14.00;1.00;;;;;;5057899;28;20116;-64
2023/05/21 04:18:54;;;;;;;6.38;4.43;;;14.10;1.00;;;;;;5057897;28;20028;-63
2023/05/21 04:21:20;;;;;;;4.38;3.97;;;14.10;1.00;;;;;;5042913;28;20033;-64
2023/05/21 04:23:46;;;;;;;4.93;4.32;;;14.10;1.00;;;;;;5057291;28;20108;-65
2023/05/21 04:26:22;;;;;;;5.03;4.53;;;14.20;1.00;;;;;;5059524;28;20308;-65
2023/05/21 04:28:49;;;;;;;6.03;4.05;;;14.20;1.00;;;;;;5040808;28;20050;-65
2023/05/21 04:31:15;;;;;;;5.65;4.40;;;14.20;1.00;;;;;;5040769;28;20309;-65
2023/05/21 04:33:44;;;;;;;5.82;4.13;;;14.30;1.00;;;;;;5057256;28;20059;-65
2023/05/21 04:36:11;;;;;;;5.80;4.35;;;14.40;1.00;;;;;;5057716;28;20033;-65
2023/05/21 04:38:38;;;;;;;10.75;4.80;;;14.40;1.00;;;;;;5057139;28;20412;-65
2023/05/21 04:41:10;;;;;;;4.93;4.15;;;14.50;1.00;;;;;;5057103;28;20021;-66
2023/05/21 04:43:37;;;;;;;4.90;4.25;;;14.50;1.00;;;;;;5057846;28;20305;-64
2023/05/21 04:46:03;;;;;;;4.82;4.30;;;14.50;1.00;;;;;;5057026;28;20408;-64
2023/05/21 04:48:29;;;;;;;5.00;4.00;;;14.60;1.00;;;;;;5024042;28;20113;-66
2023/05/21 04:50:55;;;;;;;5.65;4.53;;;14.60;1.00;;;;;;5057027;28;20119;-64
2023/05/21 04:53:24;;;;;;;5.88;4.65;;;14.70;1.00;;;;;;5056972;28;20090;-65
2023/05/21 04:55:50;;;;;;;4.75;4.35;;;14.70;1.00;;;;;;5057729;28;20021;-65
2023/05/21 04:58:17;;;;;;;5.80;3.90;;;14.60;1.00;;;;;;5056892;28;20091;-64
2023/05/21 05:00:50;;;;;;;5.07;4.15;;;14.70;1.00;;;;;;5056794;28;20033;-65
2023/05/21 05:03:16;;;;;;;5.90;4.35;;;14.60;1.00;;;;;;5056834;28;20032;-65
2023/05/21 05:05:42;;;;;;;6.72;4.45;;;14.70;1.00;;;;;;5039992;28;20399;-65
2023/05/21 05:08:08;;;;;;;4.85;4.25;;;14.70;1.00;;;;;;5057419;28;20044;-65
2023/05/21 05:10:35;;;;;;;4.72;3.83;;;14.70;1.00;;;;;;5039914;28;20037;-65
2023/05/21 05:13:00;;;;;;;5.18;4.15;;;14.80;1.00;;;;;;5056610;28;20035;-65
2023/05/21 05:15:28;;;;;;;5.47;4.18;;;14.90;1.00;;;;;;5023956;28;20404;-65
2023/05/21 05:17:55;;;;;;;5.40;4.18;;;14.90;1.00;;;;;;5039978;28;20079;-65
2023/05/21 05:20:21;;;;;;;4.60;4.20;;;15.00;1.00;;;;;;5056371;28;20332;-65
2023/05/21 05:22:48;;;;;;;4.80;4.40;;;15.00;1.00;;;;;;5040068;28;20174;-65
2023/05/21 05:25:15;;;;;;;4.53;4.00;;;15.20;1.00;;;;;;5039801;28;20060;-65
2023/05/21 05:27:41;;;;;;;4.57;4.18;;;15.20;1.00;;;;;;5023584;28;20028;-65
2023/05/21 05:30:08;;;;;;;4.78;4.32;;;15.30;1.00;;;;;;5056186;28;20040;-65
2023/05/21 05:32:34;;;;;;;6.55;4.10;;;15.30;1.00;;;;;;5056296;28;20071;-64
2023/05/21 05:35:01;;;;;;;4.68;4.28;;;15.50;1.00;;;;;;5055998;28;20017;-66
2023/05/21 05:37:26;;;;;;;4.95;4.45;;;15.40;1.00;;;;;;5039453;28;20123;-64
2023/05/21 05:39:52;;;;;;;5.05;4.55;;;15.50;1.00;;;;;;5056031;28;20130;-65
2023/05/21 05:42:18;;;;;;;5.78;4.35;;;15.60;1.00;;;;;;5057123;28;20033;-65
2023/05/21 05:44:47;;;;;;;4.45;4.00;;;15.60;1.00;;;;;;5055990;28;20076;-63
2023/05/21 05:47:13;;;;;;;5.38;4.50;;;15.60;1.00;;;;;;5056847;28;20329;-64
2023/05/21 05:49:39;;;;;;;5.07;4.57;;;15.70;1.00;;;;;;5039530;28;20107;-65
2023/05/21 05:52:05;;;;;;;4.97;4.35;;;15.90;1.00;;;;;;5039348;28;20269;-65
2023/05/21 05:54:32;;;;;;;4.95;3.90;;;16.20;1.00;;;;;;5023119;28;20040;-64
2023/05/21 05:56:58;;;;;;;4.55;4.20;;;16.10;1.00;;;;;;5055735;28;20108;-66
2023/05/21 05:59:25;;;;;;;6.03;4.70;;;16.20;1.00;;;;;;5055851;28;20044;-64
2023/05/21 06:01:55;;;;;;;5.85;4.30;;;16.00;1.00;;;;;;5055833;28;20038;-64
2023/05/21 06:04:21;;;;;;;4.90;4.30;;;16.20;1.00;;;;;;5055572;28;20028;-65
2023/05/21 06:06:47;;;;;;;4.50;3.88;;;16.40;1.00;;;;;;5055825;28;20064;-64
2023/05/21 06:09:13;;;;;;;8.02;4.82;;;16.30;1.00;;;;;;5022611;28;20073;-64
2023/05/21 06:11:39;;;;;;;5.43;4.53;;;16.30;1.00;;;;;;5055715;28;20118;-64
2023/05/21 06:14:05;;;;;;;5.43;4.47;;;16.60;1.00;;;;;;5056413;28;20040;-65
2023/05/21 06:16:31;;;;;;;4.75;4.35;;;16.60;1.00;;;;;;5055724;28;20029;-65
2023/05/21 06:18:57;;;;;;;5.55;4.53;;;16.60;1.00;;;;;;5056008;28;20091;-63
2023/05/21 06:21:23;;;;;;;5.15;4.50;;;16.60;1.00;;;;;;5055685;28;20036;-63
2023/05/21 06:23:49;;;;;;;7.03;4.18;;;16.70;1.00;;;;;;5039021;28;20037;-64
2023/05/21 06:26:15;;;;;;;5.85;5.22;;;16.80;1.00;;;;;;5038952;28;20040;-64
2023/05/21 06:28:41;;;;;;;4.90;4.50;;;16.80;1.00;;;;;;5055742;28;20385;-64
2023/05/21 06:31:08;;;;;;;4.70;4.25;;;16.80;1.00;;;;;;5056142;28;20036;-62
2023/05/21 06:33:37;;;;;;;5.85;4.82;;;17.00;1.00;;;;;;5023352;28;20036;-64
2023/05/21 06:36:03;;;;;;;6.57;4.85;;;16.90;1.00;;;;;;5055740;28;20033;-64
2023/05/21 06:38:29;;;;;;;6.68;5.32;;;16.80;1.00;;;;;;5055668;28;20048;-64
2023/05/21 06:40:55;;;;;;;6.32;5.10;;;16.90;1.00;;;;;;5055670;28;20036;-64
2023/05/21 06:43:36;;;;;;;6.93;5.30;;;17.10;1.00;;;;;;5041428;28;20044;-66
2023/05/21 06:46:25;;;;;;;5.50;4.85;;;17.50;1.00;;;;;;5024108;28;20419;-65
2023/05/21 06:48:51;;;;;;;5.78;5.10;;;17.60;1.00;;;;;;5042786;28;20033;-64
2023/05/21 06:51:17;;;;;;;6.97;4.63;;;17.70;1.00;;;;;;5059407;28;20082;-65
2023/05/21 06:53:43;;;;;;;6.15;4.80;;;17.50;1.00;;;;;;5059324;28;20056;-65
2023/05/21 06:56:09;;;;;;;7.05;4.95;;;17.20;1.00;;;;;;5059338;28;20033;-65
2023/05/21 06:58:40;;;;;;;6.35;5.10;;;17.20;1.00;;;;;;5060051;28;20040;-66
2023/05/21 07:01:06;;;;;;;7.55;5.00;;;17.10;1.00;;;;;;5059119;28;20029;-66
2023/05/21 07:03:35;;;;;;;6.80;5.40;;;17.10;1.00;;;;;;5059131;28;20033;-66
2023/05/21 07:06:00;;;;;;;7.57;5.38;;;17.20;1.00;;;;;;5058843;28;20044;-66
2023/05/21 07:08:26;;;;;;;7.57;5.43;;;17.20;1.00;;;;;;5058927;28;20355;-67
2023/05/21 07:10:55;;;;;;;5.45;5.00;;;17.00;1.00;;;;;;5042364;28;20123;-65
2023/05/21 07:13:21;;;;;;;7.65;5.10;;;17.10;1.00;;;;;;5058708;28;20071;-66
2023/05/21 07:15:46;;;;;;;6.05;5.28;;;17.40;1.00;;;;;;5059476;28;20061;-66
2023/05/21 07:18:12;;;;;;;6.28;5.13;;;17.70;1.00;;;;;;5058698;28;20025;-63
2023/05/21 07:20:38;;;;;;;6.30;5.63;;;17.70;1.00;;;;;;5058711;28;20385;-64
2023/05/21 07:23:06;;;;;;;5.80;5.30;;;17.50;1.00;;;;;;5025913;28;20151;-64
2023/05/21 07:25:32;;;;;;;6.15;5.55;;;17.60;1.00;;;;;;5058548;28;20110;-65
2023/05/21 07:27:58;;;;;;;6.30;5.72;;;17.70;1.00;;;;;;5058979;28;20041;-64
2023/05/21 07:30:24;;;;;;;6.80;6.20;;;17.90;1.00;;;;;;5058571;28;20102;-65
2023/05/21 07:32:51;;;;;;;6.57;5.72;;;18.00;1.00;;;;;;5058451;28;20069;-65
2023/05/21 07:35:17;;;;;;;6.15;5.60;;;17.80;1.00;;;;;;5058562;28;20036;-65
2023/05/21 07:37:46;;;;;;;7.65;5.78;;;17.50;1.00;;;;;;5058502;28;20037;-65
2023/05/21 07:40:13;;;;;;;7.18;5.78;;;17.60;1.00;;;;;;5041964;28;20040;-66
2023/05/21 07:42:40;;;;;;;6.45;5.53;;;17.70;1.00;;;;;;5059137;28;20317;-65
2023/05/21 07:45:07;;;;;;;7.05;5.68;;;17.70;1.00;;;;;;5058368;28;20095;-63
2023/05/21 07:47:41;;;;;;;6.18;5.65;;;18.00;1.00;;;;;;5042374;28;20124;-64
2023/05/21 07:50:07;;;;;;;6.78;5.93;;;18.30;1.00;;;;;;5058606;28;20040;-64
2023/05/21 07:52:33;;;;;;;7.25;5.95;;;18.30;1.00;;;;;;5025218;28;20036;-64
2023/05/21 07:55:00;;;;;;;6.45;5.85;;;18.60;1.00;;;;;;5041585;28;20320;-64
2023/05/21 07:57:31;;;;;;;8.63;6.70;;;18.40;1.00;;;;;;5025069;28;20029;-64
2023/05/21 08:00:00;;;;;;;9.05;6.57;;;18.60;1.00;;;;;;5042462;28;20036;-64
2023/05/21 08:02:29;;;;;;;6.75;6.15;;;18.70;1.00;;;;;;5058533;28;20040;-66
2023/05/21 08:04:54;;;;;;;8.90;5.93;;;19.00;1.00;;;;;;5057843;28;20053;-65
2023/05/21 08:07:20;;;;;;;6.43;5.80;;;19.20;1.00;;;;;;5041426;28;20029;-64
2023/05/21 08:09:46;;;;;;;7.22;6.45;;;19.30;1.00;;;;;;5057882;28;20397;-63
2023/05/21 08:12:15;;;;;;;6.97;6.20;;;19.30;1.00;;;;;;5057875;28;20401;-63
2023/05/21 08:14:41;;;;;;;8.23;6.78;;;19.30;1.00;;;;;;5057737;28;20028;-65
2023/05/21 08:17:10;;;;;;;8.10;6.60;;;18.80;1.00;;;;;;5058440;28;20404;-64
2023/05/21 08:19:36;;;;;;;8.05;6.43;;;18.60;1.00;;;;;;5057553;28;20025;-64
2023/05/21 08:22:02;;;;;;;9.50;6.70;;;18.70;1.00;;;;;;5057752;28;20044;-64
2023/05/21 08:24:30;;;;;;;9.13;6.13;;;18.70;1.00;;;;;;5057638;28;20033;-66
2023/05/21 08:26:56;;;;;;;6.60;6.00;;;18.80;1.00;;;;;;5057426;28;20078;-65
2023/05/21 08:29:22;;;;;;;7.13;5.95;;;19.00;1.00;;;;;;5024490;28;20476;-64
2023/05/21 08:31:48;;;;;;;7.32;6.13;;;19.00;1.00;;;;;;5058256;28;20048;-66
2023/05/21 08:34:14;;;;;;;8.05;6.55;;;19.30;1.00;;;;;;5057315;28;20025;-64
2023/05/21 08:36:46;;;;;;;7.25;6.32;;;19.60;1.00;;;;;;5058616;28;20125;-64
2023/05/21 08:39:35;;;;;;;6.95;6.25;;;19.70;1.00;;;;;;5058007;28;20128;-64
2023/05/21 08:42:14;;;;;;;8.57;6.32;;;19.80;1.00;;;;;;5057501;28;20486;-63
2023/05/21 08:44:45;;;;;;;6.95;6.25;;;20.20;1.00;;;;;;5057254;28;20360;-63
2023/05/21 08:47:15;;;;;;;7.80;5.90;;;20.60;1.00;;;;;;5057134;28;20055;-61
2023/05/21 08:49:43;;;;;;;7.15;6.50;;;21.00;1.00;;;;;;5057774;28;20071;-62
2023/05/21 08:52:10;;;;;;;6.20;5.60;;;21.50;99.90;;;;;;5057603;28;20021;-61
2023/05/21 08:54:36;;;;;;;8.93;6.50;;;21.80;99.90;;;;;;5057911;28;20468;-62
2023/05/21 08:57:03;;;;;;;6.38;5.85;;;22.10;60.10;;;;;;5057497;28;20099;-62
2023/05/21 08:59:29;;;;;;;7.75;6.72;;;22.30;31.90;;;;;;5040352;28;20063;-63
2023/05/21 09:01:56;;;;;;;7.93;7.10;;;22.30;83.30;;;;;;5056836;28;20098;-65
2023/05/21 09:04:29;;;;;;;6.93;6.07;;;22.50;1.00;;;;;;5040996;28;20064;-64
2023/05/21 09:06:56;;;;;;;7.22;6.18;;;22.50;1.00;;;;;;5057140;28;20060;-63
2023/05/21 09:09:52;;;;;;;8.95;7.20;;;22.60;1.00;;;;;;5042908;28;20051;-63
2023/05/21 09:12:18;;;;;;;7.10;6.50;;;22.10;1.00;;;;;;5056771;28;20025;-62
2023/05/21 09:14:46;;;;;;;7.30;6.60;;;21.60;25.90;;;;;;5040103;28;20039;-62
2023/05/21 09:17:19;;;;;;;9.15;6.90;;;21.30;99.90;;;;;;5057274;28;20029;-65
2023/05/21 09:20:13;;;;;;;9.80;7.32;;;21.50;99.90;;;;;;5056547;28;20308;-64
2023/05/21 09:22:48;;;;;;;8.75;7.07;;;21.20;99.90;;;;;;5056586;28;20040;-63
2023/05/21 09:25:16;;;;;;;7.80;6.88;;;21.10;99.90;;;;;;5039828;28;20036;-63
2023/05/21 09:27:42;;;;;;;8.48;6.40;;;20.90;99.90;;;;;;5039785;28;20439;-63
2023/05/21 09:30:16;;;;;;;7.10;6.25;;;21.40;99.90;;;;;;5057059;28;20033;-60
2023/05/21 09:32:43;;;;;;;7.90;7.10;;;21.70;99.90;;;;;;5057158;28;20323;-64
2023/05/21 09:35:11;;;;;;;6.85;6.10;;;21.90;99.90;;;;;;5056304;28;20060;-63
2023/05/21 09:37:46;;;;;;;9.00;7.18;;;22.10;99.90;;;;;;5056291;28;20469;-61
2023/05/21 09:40:15;;;;;;;7.35;6.65;;;22.20;46.00;;;;;;5057109;28;20412;-62
2023/05/21 09:42:53;;;;;;;7.60;6.85;;;22.30;57.70;;;;;;5056181;28;20039;-60
2023/05/21 09:45:27;;;;;;;8.40;7.45;;;22.30;89.40;;;;;;5058119;28;20131;-68
2023/05/21 09:48:08;;;;;;;7.70;6.95;;;22.30;1.00;;;;;;5055860;28;20113;-65
2023/05/21 09:50:35;;;;;;;8.32;7.35;;;22.30;1.00;;;;;;5056813;28;20464;-63
2023/05/21 09:53:00;;;;;;;9.55;7.35;;;22.40;1.00;;;;;;5056130;28;20036;-66
2023/05/21 09:55:27;;;;;;;7.40;6.70;;;22.40;1.00;;;;;;5023020;28;20300;-68
2023/05/21 09:57:53;;;;;;;7.72;6.90;;;22.20;1.00;;;;;;5056112;28;20056;-66
2023/05/21 10:00:23;;;;;;;9.05;7.55;;;22.10;99.90;;;;;;5072744;28;20033;-63
2023/05/21 10:02:53;;;;;;;9.57;7.22;;;21.80;99.90;;;;;;5056780;28;20043;-65
2023/05/21 10:05:19;;;;;;;10.45;7.20;;;22.10;99.90;;;;;;5056726;28;20129;-68
2023/05/21 10:07:50;;;;;;;8.27;7.18;;;22.60;1.00;;;;;;5039346;28;20032;-66
2023/05/21 10:10:18;;;;;;;9.23;7.03;;;22.70;1.00;;;;;;5055939;28;20037;-66
2023/05/21 10:13:00;;;;;;;7.60;6.80;;;22.90;1.00;;;;;;5055953;28;20017;-66
2023/05/21 10:15:30;;;;;;;8.10;6.80;;;23.20;1.00;;;;;;5072799;28;20112;-64
2023/05/21 10:17:57;;;;;;;8.07;6.82;;;23.30;1.00;;;;;;5056931;28;20043;-66
2023/05/21 10:20:23;;;;;;;7.60;6.80;;;23.60;1.00;;;;;;5056768;28;20072;-64
2023/05/21 10:22:49;;;;;;;7.40;6.68;;;23.90;99.90;;;;;;5060704;28;20060;-65
2023/05/21 10:25:16;;;;;;;10.00;7.85;;;23.90;1.00;;;;;;5060130;28;20359;-64
2023/05/21 10:27:42;;;;;;;11.30;7.57;;;23.30;1.00;;;;;;5043358;28;20129;-66
2023/05/21 10:30:08;;;;;;;8.75;7.80;;;22.70;1.00;;;;;;5059735;28;20033;-66
2023/05/21 10:32:34;;;;;;;11.07;8.25;;;22.80;1.00;;;;;;5059717;28;20037;-66
2023/05/21 10:35:01;;;;;;;10.18;8.45;;;22.60;1.00;;;;;;5059979;28;20346;-72
2023/05/21 10:37:27;;;;;;;11.77;8.18;;;22.80;1.00;;;;;;5059697;28;20067;-68
2023/05/21 10:39:54;;;;;;;10.18;8.52;;;22.90;1.00;;;;;;5059772;28;20403;-66
2023/05/21 10:42:23;;;;;;;9.93;7.38;;;23.20;99.90;;;;;;5043256;28;20029;-67
2023/05/21 10:44:52;;;;;;;10.13;9.02;;;23.50;99.90;;;;;;5059909;28;20308;-68
2023/05/21 10:47:57;;;;;;;8.75;7.95;;;23.10;99.90;;;;;;5060238;28;20032;-69
2023/05/21 10:50:29;;;;;;;12.75;8.10;;;22.90;1.00;;;;;;5059335;28;20024;-67
2023/05/21 10:53:27;;;;;;;11.48;7.85;;;23.20;1.00;;;;;;5059394;28;20087;-67
2023/05/21 10:56:12;;;;;;;9.20;8.18;;;23.10;99.90;;;;;;5059297;28;20025;-66
2023/05/21 10:59:02;;;;;;;7.75;7.05;;;23.90;99.90;;;;;;5059250;28;20104;-68
2023/05/21 11:01:32;;;;;;;10.40;6.97;;;23.60;99.90;;;;;;5059945;28;20036;-64
2023/05/21 11:03:58;;;;;;;8.70;7.80;;;24.60;1.00;;;;;;5059167;28;20051;-65
2023/05/21 11:06:25;;;;;;;8.82;7.65;;;25.60;1.00;;;;;;5059095;28;20045;-64
2023/05/21 11:08:55;;;;;;;9.38;7.13;;;26.70;99.90;;;;;;5058962;28;20025;-68
2023/05/21 11:11:41;;;;;;;9.60;8.60;;;27.50;98.90;;;;;;5060014;28;20036;-64
2023/05/21 11:14:39;;;;;;;8.32;7.35;;;25.70;99.90;;;;;;5059814;28;20025;-65
2023/05/21 11:17:08;;;;;;;8.40;7.60;;;26.50;99.90;;;;;;5059643;28;20396;-64
2023/05/21 11:19:37;;;;;;;8.32;7.53;;;26.70;99.90;;;;;;5059626;28;20037;-66
2023/05/21 11:22:27;;;;;;;8.52;7.78;;;26.10;1.00;;;;;;5042209;28;20051;-65
2023/05/21 11:24:55;;;;;;;8.30;7.50;;;26.50;99.90;;;;;;5059233;28;20083;-66
2023/05/21 11:27:36;;;;;;;8.30;7.50;;;25.90;88.20;;;;;;5059417;28;20121;-65
2023/05/21 11:30:07;;;;;;;8.80;7.97;;;26.00;1.00;;;;;;5042103;28;20405;-66
2023/05/21 11:33:12;;;;;;;10.32;9.23;;;25.50;51.60;;;;;;5058017;28;20033;-66
2023/05/21 11:36:02;;;;;;;10.85;9.13;;;25.70;1.00;;;;;;5058537;28;20122;-66
2023/05/21 11:38:30;;;;;;;10.15;9.10;;;25.70;99.90;;;;;;5059508;28;20037;-65
2023/05/21 11:41:01;;;;;;;11.23;8.43;;;24.70;1.00;;;;;;5058585;28;20297;-64
2023/05/21 11:43:27;;;;;;;9.60;8.43;;;23.90;1.00;;;;;;5075871;28;20029;-65
2023/05/21 11:45:54;;;;;;;8.40;7.55;;;24.40;1.00;;;;;;5041843;28;20033;-66
2023/05/21 11:48:26;;;;;;;10.88;9.25;;;24.90;1.00;;;;;;5058251;28;20028;-67
2023/05/21 11:50:52;;;;;;;15.50;12.27;;;25.20;1.00;;;;;;5059525;28;20091;-65
2023/05/21 11:53:18;;;;;;;11.23;10.02;;;25.00;1.00;;;;;;5058497;28;20021;-66
2023/05/21 11:55:46;;;;;;;10.77;9.40;;;24.90;99.90;;;;;;5058126;28;20128;-65
2023/05/21 11:58:13;;;;;;;10.32;9.18;;;24.80;1.00;;;;;;5058503;28;20124;-66
2023/05/21 12:00:39;;;;;;;12.23;8.50;;;24.60;99.90;;;;;;5058315;28;20040;-65
2023/05/21 12:03:11;;;;;;;11.15;9.15;;;24.70;1.00;;;;;;5058854;28;20111;-66
2023/05/21 12:05:45;;;;;;;11.60;9.02;;;24.40;1.00;;;;;;5058719;28;20053;-66
2023/05/21 12:08:11;;;;;;;9.95;8.55;;;24.90;1.00;;;;;;5041886;28;20395;-66
2023/05/21 12:10:38;;;;;;;9.13;8.00;;;25.30;99.90;;;;;;5041315;28;20109;-66
2023/05/21 12:13:05;;;;;;;9.38;8.00;;;26.10;1.00;;;;;;5058000;28;20319;-69
2023/05/21 12:15:31;;;;;;;9.48;8.27;;;26.90;99.90;;;;;;5057971;28;20043;-69
2023/05/21 12:17:57;;;;;;;9.88;8.77;;;27.40;1.00;;;;;;5057889;28;20029;-68
2023/05/21 12:20:25;;;;;;;9.13;8.23;;;28.10;99.90;;;;;;5058581;28;20104;-67
2023/05/21 12:22:51;;;;;;;9.68;8.65;;;29.20;99.90;;;;;;5057774;28;20045;-65
2023/05/21 12:25:21;;;;;;;13.18;11.40;;;29.00;1.00;;;;;;5057814;28;20025;-67
2023/05/21 12:27:51;;;;;;;16.92;15.23;;;28.90;1.00;;;;;;5041157;28;20052;-69
2023/05/21 12:30:17;;;;;;;12.98;11.63;;;29.40;1.00;;;;;;5057682;28;20166;-66
2023/05/21 12:32:43;;;;;;;10.27;9.23;;;28.60;1.00;;;;;;5058734;28;20404;-66
2023/05/21 12:35:18;;;;;;;11.30;9.05;;;27.50;1.00;;;;;;5057523;28;20021;-66
2023/05/21 12:37:44;;;;;;;11.05;8.65;;;26.40;1.00;;;;;;5058299;28;20024;-64
2023/05/21 12:40:11;;;;;;;9.35;8.35;;;26.20;76.90;;;;;;5057340;28;20040;-64
2023/05/21 12:42:38;;;;;;;9.48;8.20;;;26.60;99.90;;;;;;5057433;28;20047;-65
2023/05/21 12:45:08;;;;;;;8.32;7.53;;;26.60;99.90;;;;;;5056384;28;20043;-66
2023/05/21 12:47:35;;;;;;;9.32;8.30;;;28.00;1.00;;;;;;5057255;28;20401;-65
2023/05/21 12:50:02;;;;;;;8.20;7.40;;;27.50;99.90;;;;;;5040406;28;20114;-66
2023/05/21 12:52:31;;;;;;;9.88;7.70;;;27.80;1.00;;;;;;5057030;28;20107;-64
2023/05/21 12:54:58;;;;;;;10.68;8.23;;;27.70;99.90;;;;;;5057809;28;20021;-64
2023/05/21 12:57:35;;;;;;;8.93;8.02;;;26.90;1.00;;;;;;5057065;28;20025;-67
2023/05/21 13:00:05;;;;;;;8.10;7.40;;;26.20;1.00;;;;;;5057845;28;20337;-67
2023/05/21 13:02:32;;;;;;;9.00;7.32;;;27.10;1.00;;;;;;5057034;28;20123;-64
2023/05/21 13:05:03;;;;;;;8.20;7.05;;;28.40;99.90;;;;;;5057367;28;20132;-65